Terminal Aerodrome Forecast
Issued by NWS

Home | Current Version | Previous Version | Text Only | Print | Product List | Glossary On
Versions: 1 2 3 4 5 6 7 8 9 10 11 12 13 14 15 16
000
FTUS43 KGRR 280500
TAFJXN
TAF
KJXN 280540Z 2806/2906 27009KT P6SM OVC016
      TEMPO 2807/2809 4SM -SHSN
     FM280900 28009KT P6SM OVC025
     FM281800 27007KT P6SM SCT025=

USA.gov is the U.S. government's official web portal to all federal, state and local government web resources and services.